sensor_id;sensor_type;location;lat;lon;timestamp;P1;durP1;ratioP1;P2;durP2;ratioP2
3099;SDS011;1560;52.746;13.474;2022-08-11T00:01:07;4.30;;;2.73;;
3099;SDS011;1560;52.746;13.474;2022-08-11T00:03:41;4.20;;;2.60;;
3099;SDS011;1560;52.746;13.474;2022-08-11T00:06:12;3.07;;;2.40;;
3099;SDS011;1560;52.746;13.474;2022-08-11T00:08:41;4.17;;;3.10;;
3099;SDS011;1560;52.746;13.474;2022-08-11T00:11:12;4.63;;;3.07;;
3099;SDS011;1560;52.746;13.474;2022-08-11T00:13:44;4.50;;;2.80;;
3099;SDS011;1560;52.746;13.474;2022-08-11T00:16:14;5.43;;;3.27;;
3099;SDS011;1560;52.746;13.474;2022-08-11T00:18:44;4.10;;;3.17;;
3099;SDS011;1560;52.746;13.474;2022-08-11T00:21:15;8.80;;;4.40;;
3099;SDS011;1560;52.746;13.474;2022-08-11T00:23:46;5.70;;;3.30;;
3099;SDS011;1560;52.746;13.474;2022-08-11T00:26:19;8.23;;;3.40;;
3099;SDS011;1560;52.746;13.474;2022-08-11T00:31:26;6.27;;;3.87;;
3099;SDS011;1560;52.746;13.474;2022-08-11T00:33:58;5.00;;;3.10;;
3099;SDS011;1560;52.746;13.474;2022-08-11T00:36:28;8.07;;;3.87;;
3099;SDS011;1560;52.746;13.474;2022-08-11T00:39:06;4.40;;;3.20;;
3099;SDS011;1560;52.746;13.474;2022-08-11T00:41:38;7.17;;;3.77;;
3099;SDS011;1560;52.746;13.474;2022-08-11T00:44:13;5.60;;;3.47;;
3099;SDS011;1560;52.746;13.474;2022-08-11T00:46:52;10.33;;;4.23;;
3099;SDS011;1560;52.746;13.474;2022-08-11T00:49:38;15.90;;;5.90;;
3099;SDS011;1560;52.746;13.474;2022-08-11T00:52:14;13.97;;;4.37;;
3099;SDS011;1560;52.746;13.474;2022-08-11T00:55:05;7.17;;;3.40;;
3099;SDS011;1560;52.746;13.474;2022-08-11T01:00:32;3.67;;;3.37;;
3099;SDS011;1560;52.746;13.474;2022-08-11T01:03:09;6.30;;;2.90;;
3099;SDS011;1560;52.746;13.474;2022-08-11T01:06:00;7.53;;;3.80;;
3099;SDS011;1560;52.746;13.474;2022-08-11T01:08:42;5.30;;;3.10;;
3099;SDS011;1560;52.746;13.474;2022-08-11T01:15:03;4.40;;;3.30;;
3099;SDS011;1560;52.746;13.474;2022-08-11T01:17:51;11.70;;;3.80;;
3099;SDS011;1560;52.746;13.474;2022-08-11T01:20:49;8.87;;;3.57;;
3099;SDS011;1560;52.746;13.474;2022-08-11T01:23:54;5.80;;;3.90;;
3099;SDS011;1560;52.746;13.474;2022-08-11T01:26:51;9.27;;;4.20;;
3099;SDS011;1560;52.746;13.474;2022-08-11T01:36:05;8.27;;;3.90;;
3099;SDS011;1560;52.746;13.474;2022-08-11T01:38:57;5.13;;;2.83;;
3099;SDS011;1560;52.746;13.474;2022-08-11T01:41:41;5.03;;;3.77;;
3099;SDS011;1560;52.746;13.474;2022-08-11T01:44:48;6.30;;;3.73;;
3099;SDS011;1560;52.746;13.474;2022-08-11T01:47:33;5.00;;;3.70;;
3099;SDS011;1560;52.746;13.474;2022-08-11T01:50:34;7.83;;;3.30;;
3099;SDS011;1560;52.746;13.474;2022-08-11T01:53:20;6.77;;;3.27;;
3099;SDS011;1560;52.746;13.474;2022-08-11T01:55:53;4.60;;;3.37;;
3099;SDS011;1560;52.746;13.474;2022-08-11T02:01:06;5.70;;;3.00;;
3099;SDS011;1560;52.746;13.474;2022-08-11T02:03:40;7.17;;;3.87;;
3099;SDS011;1560;52.746;13.474;2022-08-11T02:06:20;4.90;;;2.67;;
3099;SDS011;1560;52.746;13.474;2022-08-11T02:11:45;5.37;;;3.30;;
3099;SDS011;1560;52.746;13.474;2022-08-11T02:14:18;3.10;;;2.43;;
3099;SDS011;1560;52.746;13.474;2022-08-11T02:16:54;3.00;;;2.60;;
3099;SDS011;1560;52.746;13.474;2022-08-11T02:19:40;4.57;;;3.33;;
3099;SDS011;1560;52.746;13.474;2022-08-11T02:22:17;3.23;;;2.93;;
3099;SDS011;1560;52.746;13.474;2022-08-11T02:27:43;3.80;;;3.20;;
3099;SDS011;1560;52.746;13.474;2022-08-11T02:30:15;3.93;;;3.20;;
3099;SDS011;1560;52.746;13.474;2022-08-11T02:32:47;3.90;;;2.97;;
3099;SDS011;1560;52.746;13.474;2022-08-11T02:35:40;4.50;;;2.80;;
3099;SDS011;1560;52.746;13.474;2022-08-11T02:38:13;3.27;;;2.67;;
3099;SDS011;1560;52.746;13.474;2022-08-11T02:40:46;3.90;;;3.13;;
3099;SDS011;1560;52.746;13.474;2022-08-11T02:43:26;4.30;;;3.17;;
3099;SDS011;1560;52.746;13.474;2022-08-11T02:46:03;5.70;;;3.20;;
3099;SDS011;1560;52.746;13.474;2022-08-11T02:48:42;4.40;;;3.10;;
3099;SDS011;1560;52.746;13.474;2022-08-11T02:51:40;6.67;;;2.77;;
3099;SDS011;1560;52.746;13.474;2022-08-11T02:54:16;4.40;;;2.83;;
3099;SDS011;1560;52.746;13.474;2022-08-11T02:59:26;3.63;;;2.87;;
3099;SDS011;1560;52.746;13.474;2022-08-11T03:02:19;4.03;;;3.63;;
3099;SDS011;1560;52.746;13.474;2022-08-11T03:05:14;3.87;;;3.10;;
3099;SDS011;1560;52.746;13.474;2022-08-11T03:08:03;4.43;;;3.20;;
3099;SDS011;1560;52.746;13.474;2022-08-11T03:13:13;3.27;;;2.57;;
3099;SDS011;1560;52.746;13.474;2022-08-11T03:16:07;3.30;;;2.80;;
3099;SDS011;1560;52.746;13.474;2022-08-11T03:18:48;5.67;;;3.70;;
3099;SDS011;1560;52.746;13.474;2022-08-11T03:21:19;5.90;;;3.40;;
3099;SDS011;1560;52.746;13.474;2022-08-11T03:23:57;3.97;;;3.20;;
3099;SDS011;1560;52.746;13.474;2022-08-11T03:26:29;5.23;;;3.33;;
3099;SDS011;1560;52.746;13.474;2022-08-11T03:29:05;4.37;;;3.00;;
3099;SDS011;1560;52.746;13.474;2022-08-11T03:31:36;5.00;;;3.77;;
3099;SDS011;1560;52.746;13.474;2022-08-11T03:34:17;4.73;;;3.53;;
3099;SDS011;1560;52.746;13.474;2022-08-11T03:36:54;11.60;;;3.47;;
3099;SDS011;1560;52.746;13.474;2022-08-11T03:39:41;4.17;;;3.00;;
3099;SDS011;1560;52.746;13.474;2022-08-11T03:42:17;5.63;;;3.27;;
3099;SDS011;1560;52.746;13.474;2022-08-11T03:44:51;7.37;;;3.87;;
3099;SDS011;1560;52.746;13.474;2022-08-11T03:47:38;4.63;;;3.33;;
3099;SDS011;1560;52.746;13.474;2022-08-11T03:53:07;6.00;;;4.17;;
3099;SDS011;1560;52.746;13.474;2022-08-11T03:55:45;8.43;;;3.80;;
3099;SDS011;1560;52.746;13.474;2022-08-11T04:04:43;3.43;;;2.93;;
3099;SDS011;1560;52.746;13.474;2022-08-11T04:13:33;5.57;;;3.63;;
3099;SDS011;1560;52.746;13.474;2022-08-11T04:22:33;7.23;;;3.47;;
3099;SDS011;1560;52.746;13.474;2022-08-11T04:31:09;4.00;;;2.93;;
3099;SDS011;1560;52.746;13.474;2022-08-11T04:33:49;3.20;;;2.90;;
3099;SDS011;1560;52.746;13.474;2022-08-11T04:36:46;3.97;;;3.57;;
3099;SDS011;1560;52.746;13.474;2022-08-11T04:39:46;5.40;;;3.70;;
3099;SDS011;1560;52.746;13.474;2022-08-11T04:42:38;6.70;;;3.57;;
3099;SDS011;1560;52.746;13.474;2022-08-11T04:46:05;4.83;;;3.13;;
3099;SDS011;1560;52.746;13.474;2022-08-11T04:49:26;7.10;;;3.80;;
3099;SDS011;1560;52.746;13.474;2022-08-11T04:55:54;5.03;;;3.30;;
3099;SDS011;1560;52.746;13.474;2022-08-11T04:59:26;4.43;;;2.93;;
3099;SDS011;1560;52.746;13.474;2022-08-11T05:05:14;5.13;;;3.37;;
3099;SDS011;1560;52.746;13.474;2022-08-11T05:08:09;4.93;;;3.93;;
3099;SDS011;1560;52.746;13.474;2022-08-11T05:10:57;7.37;;;4.30;;
3099;SDS011;1560;52.746;13.474;2022-08-11T05:13:45;6.67;;;3.90;;
3099;SDS011;1560;52.746;13.474;2022-08-11T05:16:39;7.17;;;3.90;;
3099;SDS011;1560;52.746;13.474;2022-08-11T05:19:26;4.50;;;3.10;;
3099;SDS011;1560;52.746;13.474;2022-08-11T05:22:12;6.73;;;3.20;;
3099;SDS011;1560;52.746;13.474;2022-08-11T05:25:01;6.20;;;3.67;;
3099;SDS011;1560;52.746;13.474;2022-08-11T05:27:50;4.30;;;3.40;;
3099;SDS011;1560;52.746;13.474;2022-08-11T05:30:39;4.20;;;3.37;;
3099;SDS011;1560;52.746;13.474;2022-08-11T05:33:32;4.60;;;3.40;;
3099;SDS011;1560;52.746;13.474;2022-08-11T05:36:23;6.23;;;3.13;;
3099;SDS011;1560;52.746;13.474;2022-08-11T05:38:56;5.03;;;3.23;;
3099;SDS011;1560;52.746;13.474;2022-08-11T05:41:44;5.00;;;3.47;;
3099;SDS011;1560;52.746;13.474;2022-08-11T05:44:31;4.03;;;3.20;;
3099;SDS011;1560;52.746;13.474;2022-08-11T05:47:23;4.93;;;3.37;;
3099;SDS011;1560;52.746;13.474;2022-08-11T05:50:11;3.87;;;3.57;;
3099;SDS011;1560;52.746;13.474;2022-08-11T05:52:59;4.67;;;3.67;;
3099;SDS011;1560;52.746;13.474;2022-08-11T05:55:47;4.73;;;3.17;;
3099;SDS011;1560;52.746;13.474;2022-08-11T06:01:12;5.33;;;3.70;;
3099;SDS011;1560;52.746;13.474;2022-08-11T06:03:43;4.90;;;3.40;;
3099;SDS011;1560;52.746;13.474;2022-08-11T06:06:31;4.20;;;3.50;;
3099;SDS011;1560;52.746;13.474;2022-08-11T06:09:02;4.97;;;3.80;;
3099;SDS011;1560;52.746;13.474;2022-08-11T06:14:07;3.37;;;3.00;;
3099;SDS011;1560;52.746;13.474;2022-08-11T06:16:36;5.30;;;3.70;;
3099;SDS011;1560;52.746;13.474;2022-08-11T06:19:07;4.23;;;3.53;;
3099;SDS011;1560;52.746;13.474;2022-08-11T06:21:36;4.57;;;3.70;;
3099;SDS011;1560;52.746;13.474;2022-08-11T06:24:10;4.20;;;3.80;;
3099;SDS011;1560;52.746;13.474;2022-08-11T06:29:15;5.03;;;3.60;;
3099;SDS011;1560;52.746;13.474;2022-08-11T06:31:50;6.60;;;4.17;;
3099;SDS011;1560;52.746;13.474;2022-08-11T06:34:26;5.97;;;3.67;;
3099;SDS011;1560;52.746;13.474;2022-08-11T06:37:12;3.90;;;3.50;;
3099;SDS011;1560;52.746;13.474;2022-08-11T06:39:46;8.43;;;4.03;;
3099;SDS011;1560;52.746;13.474;2022-08-11T06:45:00;5.23;;;4.70;;
3099;SDS011;1560;52.746;13.474;2022-08-11T06:47:34;5.20;;;4.40;;
3099;SDS011;1560;52.746;13.474;2022-08-11T06:50:11;5.80;;;4.70;;
3099;SDS011;1560;52.746;13.474;2022-08-11T06:53:01;5.70;;;4.30;;
3099;SDS011;1560;52.746;13.474;2022-08-11T06:55:33;5.73;;;4.57;;
3099;SDS011;1560;52.746;13.474;2022-08-11T06:58:21;5.63;;;4.37;;
3099;SDS011;1560;52.746;13.474;2022-08-11T07:01:09;6.40;;;4.57;;
3099;SDS011;1560;52.746;13.474;2022-08-11T07:03:41;6.37;;;5.73;;
3099;SDS011;1560;52.746;13.474;2022-08-11T07:06:23;7.57;;;5.00;;
3099;SDS011;1560;52.746;13.474;2022-08-11T07:09:07;6.83;;;5.03;;
3099;SDS011;1560;52.746;13.474;2022-08-11T07:14:37;5.93;;;4.80;;
3099;SDS011;1560;52.746;13.474;2022-08-11T07:17:25;7.77;;;5.70;;
3099;SDS011;1560;52.746;13.474;2022-08-11T07:19:57;5.80;;;5.30;;
3099;SDS011;1560;52.746;13.474;2022-08-11T07:22:48;7.77;;;5.40;;
3099;SDS011;1560;52.746;13.474;2022-08-11T07:25:37;5.63;;;5.13;;
3099;SDS011;1560;52.746;13.474;2022-08-11T07:28:26;8.90;;;5.57;;
3099;SDS011;1560;52.746;13.474;2022-08-11T07:31:16;8.57;;;5.73;;
3099;SDS011;1560;52.746;13.474;2022-08-11T07:33:48;7.20;;;5.40;;
3099;SDS011;1560;52.746;13.474;2022-08-11T07:36:19;6.70;;;4.87;;
3099;SDS011;1560;52.746;13.474;2022-08-11T07:38:52;9.10;;;5.63;;
3099;SDS011;1560;52.746;13.474;2022-08-11T07:41:30;5.40;;;4.93;;
3099;SDS011;1560;52.746;13.474;2022-08-11T07:44:00;6.90;;;5.13;;
3099;SDS011;1560;52.746;13.474;2022-08-11T07:46:35;8.80;;;4.30;;
3099;SDS011;1560;52.746;13.474;2022-08-11T07:49:14;5.17;;;4.70;;
3099;SDS011;1560;52.746;13.474;2022-08-11T07:52:01;7.23;;;5.10;;
3099;SDS011;1560;52.746;13.474;2022-08-11T07:54:48;5.80;;;4.40;;
3099;SDS011;1560;52.746;13.474;2022-08-11T07:57:17;6.40;;;5.20;;
3099;SDS011;1560;52.746;13.474;2022-08-11T08:00:05;6.43;;;5.20;;
3099;SDS011;1560;52.746;13.474;2022-08-11T08:02:52;5.63;;;4.50;;
3099;SDS011;1560;52.746;13.474;2022-08-11T08:05:39;4.97;;;4.50;;
3099;SDS011;1560;52.746;13.474;2022-08-11T08:11:03;6.87;;;5.17;;
3099;SDS011;1560;52.746;13.474;2022-08-11T08:13:50;4.53;;;4.13;;
3099;SDS011;1560;52.746;13.474;2022-08-11T08:16:38;6.30;;;4.53;;
3099;SDS011;1560;52.746;13.474;2022-08-11T08:19:24;5.97;;;5.10;;
3099;SDS011;1560;52.746;13.474;2022-08-11T08:21:54;5.90;;;4.40;;
3099;SDS011;1560;52.746;13.474;2022-08-11T08:24:24;5.37;;;4.53;;
3099;SDS011;1560;52.746;13.474;2022-08-11T08:26:54;5.17;;;4.43;;
3099;SDS011;1560;52.746;13.474;2022-08-11T08:29:24;5.63;;;4.63;;
3099;SDS011;1560;52.746;13.474;2022-08-11T08:32:12;5.07;;;4.23;;
3099;SDS011;1560;52.746;13.474;2022-08-11T08:34:42;6.03;;;4.80;;
3099;SDS011;1560;52.746;13.474;2022-08-11T08:37:12;6.07;;;5.43;;
3099;SDS011;1560;52.746;13.474;2022-08-11T08:42:27;4.93;;;4.27;;
3099;SDS011;1560;52.746;13.474;2022-08-11T08:44:52;4.57;;;4.17;;
3099;SDS011;1560;52.746;13.474;2022-08-11T08:50:00;5.20;;;3.83;;
3099;SDS011;1560;52.746;13.474;2022-08-11T08:52:33;5.83;;;4.80;;
3099;SDS011;1560;52.746;13.474;2022-08-11T08:55:06;6.60;;;3.47;;
3099;SDS011;1560;52.746;13.474;2022-08-11T08:57:38;7.30;;;4.30;;
3099;SDS011;1560;52.746;13.474;2022-08-11T09:00:10;4.80;;;4.13;;
3099;SDS011;1560;52.746;13.474;2022-08-11T09:02:43;7.10;;;3.73;;
3099;SDS011;1560;52.746;13.474;2022-08-11T09:07:49;6.90;;;4.43;;
3099;SDS011;1560;52.746;13.474;2022-08-11T09:10:19;10.93;;;4.10;;
3099;SDS011;1560;52.746;13.474;2022-08-11T09:15:25;6.27;;;4.33;;
3099;SDS011;1560;52.746;13.474;2022-08-11T09:17:54;5.30;;;4.13;;
3099;SDS011;1560;52.746;13.474;2022-08-11T09:23:05;6.40;;;4.00;;
3099;SDS011;1560;52.746;13.474;2022-08-11T09:25:52;5.53;;;4.20;;
3099;SDS011;1560;52.746;13.474;2022-08-11T09:28:41;7.00;;;4.20;;
3099;SDS011;1560;52.746;13.474;2022-08-11T09:31:10;6.90;;;4.40;;
3099;SDS011;1560;52.746;13.474;2022-08-11T09:36:16;5.00;;;4.10;;
3099;SDS011;1560;52.746;13.474;2022-08-11T09:39:04;7.20;;;4.63;;
3099;SDS011;1560;52.746;13.474;2022-08-11T09:41:51;4.87;;;4.20;;
3099;SDS011;1560;52.746;13.474;2022-08-11T09:44:20;4.77;;;4.30;;
3099;SDS011;1560;52.746;13.474;2022-08-11T09:47:08;10.73;;;4.57;;
3099;SDS011;1560;52.746;13.474;2022-08-11T09:49:38;4.40;;;4.00;;
3099;SDS011;1560;52.746;13.474;2022-08-11T09:52:07;5.23;;;4.47;;
3099;SDS011;1560;52.746;13.474;2022-08-11T09:54:38;7.17;;;4.53;;
3099;SDS011;1560;52.746;13.474;2022-08-11T09:57:08;6.17;;;3.77;;
3099;SDS011;1560;52.746;13.474;2022-08-11T10:02:31;9.27;;;4.40;;
3099;SDS011;1560;52.746;13.474;2022-08-11T10:05:01;5.40;;;4.90;;
3099;SDS011;1560;52.746;13.474;2022-08-11T10:07:49;10.90;;;4.63;;
3099;SDS011;1560;52.746;13.474;2022-08-11T10:10:20;8.93;;;4.50;;
3099;SDS011;1560;52.746;13.474;2022-08-11T10:12:55;5.70;;;4.13;;
3099;SDS011;1560;52.746;13.474;2022-08-11T10:18:03;4.43;;;3.70;;
3099;SDS011;1560;52.746;13.474;2022-08-11T10:20:51;5.10;;;4.40;;
3099;SDS011;1560;52.746;13.474;2022-08-11T10:23:23;5.27;;;4.23;;
3099;SDS011;1560;52.746;13.474;2022-08-11T10:26:12;6.77;;;3.90;;
3099;SDS011;1560;52.746;13.474;2022-08-11T10:31:36;4.60;;;4.13;;
3099;SDS011;1560;52.746;13.474;2022-08-11T10:37:17;4.60;;;4.20;;
3099;SDS011;1560;52.746;13.474;2022-08-11T10:42:24;5.03;;;4.00;;
3099;SDS011;1560;52.746;13.474;2022-08-11T10:45:11;5.33;;;4.80;;
3099;SDS011;1560;52.746;13.474;2022-08-11T10:47:59;7.57;;;4.17;;
3099;SDS011;1560;52.746;13.474;2022-08-11T10:50:31;4.57;;;4.00;;
3099;SDS011;1560;52.746;13.474;2022-08-11T10:53:18;4.03;;;3.63;;
3099;SDS011;1560;52.746;13.474;2022-08-11T10:56:05;5.77;;;4.80;;
3099;SDS011;1560;52.746;13.474;2022-08-11T10:58:53;5.83;;;5.23;;
3099;SDS011;1560;52.746;13.474;2022-08-11T11:01:32;5.17;;;4.20;;
3099;SDS011;1560;52.746;13.474;2022-08-11T11:04:04;6.83;;;3.53;;
3099;SDS011;1560;52.746;13.474;2022-08-11T11:09:14;5.53;;;4.40;;
3099;SDS011;1560;52.746;13.474;2022-08-11T11:11:49;5.87;;;4.33;;
3099;SDS011;1560;52.746;13.474;2022-08-11T11:14:36;5.07;;;4.57;;
3099;SDS011;1560;52.746;13.474;2022-08-11T11:20:05;5.47;;;4.13;;
3099;SDS011;1560;52.746;13.474;2022-08-11T11:22:36;5.20;;;3.90;;
3099;SDS011;1560;52.746;13.474;2022-08-11T11:25:09;5.17;;;3.77;;
3099;SDS011;1560;52.746;13.474;2022-08-11T11:30:21;4.23;;;3.83;;
3099;SDS011;1560;52.746;13.474;2022-08-11T11:32:55;4.07;;;3.77;;
3099;SDS011;1560;52.746;13.474;2022-08-11T11:35:31;5.40;;;4.73;;
3099;SDS011;1560;52.746;13.474;2022-08-11T11:38:08;5.70;;;4.20;;
3099;SDS011;1560;52.746;13.474;2022-08-11T11:43:12;6.03;;;4.53;;
3099;SDS011;1560;52.746;13.474;2022-08-11T11:45:41;7.30;;;4.53;;
3099;SDS011;1560;52.746;13.474;2022-08-11T11:48:10;5.43;;;4.93;;
3099;SDS011;1560;52.746;13.474;2022-08-11T11:50:39;6.50;;;3.80;;
3099;SDS011;1560;52.746;13.474;2022-08-11T11:53:09;5.20;;;4.70;;
3099;SDS011;1560;52.746;13.474;2022-08-11T11:58:15;5.07;;;4.40;;
3099;SDS011;1560;52.746;13.474;2022-08-11T12:01:03;3.73;;;3.40;;
3099;SDS011;1560;52.746;13.474;2022-08-11T12:06:23;7.53;;;3.90;;
3099;SDS011;1560;52.746;13.474;2022-08-11T12:08:54;4.90;;;4.50;;
3099;SDS011;1560;52.746;13.474;2022-08-11T12:14:02;5.43;;;4.30;;
3099;SDS011;1560;52.746;13.474;2022-08-11T12:16:33;7.93;;;4.37;;
3099;SDS011;1560;52.746;13.474;2022-08-11T12:19:05;5.17;;;4.67;;
3099;SDS011;1560;52.746;13.474;2022-08-11T12:24:11;6.30;;;4.37;;
3099;SDS011;1560;52.746;13.474;2022-08-11T12:29:54;6.57;;;3.90;;
3099;SDS011;1560;52.746;13.474;2022-08-11T12:32:25;5.13;;;4.03;;
3099;SDS011;1560;52.746;13.474;2022-08-11T12:34:56;5.23;;;3.80;;
3099;SDS011;1560;52.746;13.474;2022-08-11T12:37:27;7.23;;;4.10;;
3099;SDS011;1560;52.746;13.474;2022-08-11T12:42:36;8.30;;;4.37;;
3099;SDS011;1560;52.746;13.474;2022-08-11T12:45:24;3.93;;;3.50;;
3099;SDS011;1560;52.746;13.474;2022-08-11T12:50:30;5.27;;;3.77;;
3099;SDS011;1560;52.746;13.474;2022-08-11T12:53:18;6.63;;;3.80;;
3099;SDS011;1560;52.746;13.474;2022-08-11T12:55:50;6.60;;;3.93;;
3099;SDS011;1560;52.746;13.474;2022-08-11T12:58:40;3.83;;;3.30;;
3099;SDS011;1560;52.746;13.474;2022-08-11T13:03:46;5.43;;;3.27;;
3099;SDS011;1560;52.746;13.474;2022-08-11T13:09:11;3.47;;;3.17;;
3099;SDS011;1560;52.746;13.474;2022-08-11T13:11:40;3.80;;;3.40;;
3099;SDS011;1560;52.746;13.474;2022-08-11T13:14:28;4.80;;;3.50;;
3099;SDS011;1560;52.746;13.474;2022-08-11T13:16:58;4.80;;;3.17;;
3099;SDS011;1560;52.746;13.474;2022-08-11T13:19:48;5.70;;;3.70;;
3099;SDS011;1560;52.746;13.474;2022-08-11T13:22:19;4.37;;;3.30;;
3099;SDS011;1560;52.746;13.474;2022-08-11T13:24:49;3.53;;;3.20;;
3099;SDS011;1560;52.746;13.474;2022-08-11T13:29:56;3.63;;;3.33;;
3099;SDS011;1560;52.746;13.474;2022-08-11T13:32:44;3.30;;;2.83;;
3099;SDS011;1560;52.746;13.474;2022-08-11T13:35:13;4.30;;;3.03;;
3099;SDS011;1560;52.746;13.474;2022-08-11T13:37:42;4.40;;;3.00;;
3099;SDS011;1560;52.746;13.474;2022-08-11T13:40:13;5.30;;;2.70;;
3099;SDS011;1560;52.746;13.474;2022-08-11T13:42:44;3.43;;;2.83;;
3099;SDS011;1560;52.746;13.474;2022-08-11T13:45:14;4.03;;;3.20;;
3099;SDS011;1560;52.746;13.474;2022-08-11T13:47:43;4.30;;;3.30;;
3099;SDS011;1560;52.746;13.474;2022-08-11T13:50:13;4.27;;;2.50;;
3099;SDS011;1560;52.746;13.474;2022-08-11T13:52:42;4.17;;;3.00;;
3099;SDS011;1560;52.746;13.474;2022-08-11T13:55:14;3.60;;;2.90;;
3099;SDS011;1560;52.746;13.474;2022-08-11T13:57:49;4.10;;;3.40;;
3099;SDS011;1560;52.746;13.474;2022-08-11T14:00:20;5.70;;;3.10;;
3099;SDS011;1560;52.746;13.474;2022-08-11T14:05:26;3.50;;;2.87;;
3099;SDS011;1560;52.746;13.474;2022-08-11T14:07:58;3.97;;;2.97;;
3099;SDS011;1560;52.746;13.474;2022-08-11T14:10:29;3.10;;;2.80;;
3099;SDS011;1560;52.746;13.474;2022-08-11T14:13:00;3.30;;;2.10;;
3099;SDS011;1560;52.746;13.474;2022-08-11T14:15:48;4.40;;;2.70;;
3099;SDS011;1560;52.746;13.474;2022-08-11T14:18:19;3.07;;;2.77;;
3099;SDS011;1560;52.746;13.474;2022-08-11T14:20:58;4.77;;;2.97;;
3099;SDS011;1560;52.746;13.474;2022-08-11T14:23:47;3.70;;;2.97;;
3099;SDS011;1560;52.746;13.474;2022-08-11T14:26:18;4.40;;;3.00;;
3099;SDS011;1560;52.746;13.474;2022-08-11T14:28:57;3.77;;;3.03;;
3099;SDS011;1560;52.746;13.474;2022-08-11T14:34:04;4.93;;;2.90;;
3099;SDS011;1560;52.746;13.474;2022-08-11T14:39:12;4.63;;;2.73;;
3099;SDS011;1560;52.746;13.474;2022-08-11T14:41:44;2.90;;;2.13;;
3099;SDS011;1560;52.746;13.474;2022-08-11T14:44:33;6.47;;;2.70;;
3099;SDS011;1560;52.746;13.474;2022-08-11T14:47:11;3.10;;;2.73;;
3099;SDS011;1560;52.746;13.474;2022-08-11T14:52:17;5.23;;;2.60;;
3099;SDS011;1560;52.746;13.474;2022-08-11T14:54:47;3.43;;;2.17;;
3099;SDS011;1560;52.746;13.474;2022-08-11T14:57:36;4.53;;;2.20;;
3099;SDS011;1560;52.746;13.474;2022-08-11T15:00:14;2.70;;;2.40;;
3099;SDS011;1560;52.746;13.474;2022-08-11T15:02:44;10.70;;;3.23;;
3099;SDS011;1560;52.746;13.474;2022-08-11T15:05:34;3.50;;;2.47;;
3099;SDS011;1560;52.746;13.474;2022-08-11T15:08:05;3.40;;;2.57;;
3099;SDS011;1560;52.746;13.474;2022-08-11T15:10:34;2.77;;;2.50;;
3099;SDS011;1560;52.746;13.474;2022-08-11T15:13:03;2.93;;;2.00;;
3099;SDS011;1560;52.746;13.474;2022-08-11T15:15:35;5.80;;;2.20;;
3099;SDS011;1560;52.746;13.474;2022-08-11T15:18:25;4.80;;;2.40;;
3099;SDS011;1560;52.746;13.474;2022-08-11T15:20:54;5.93;;;2.33;;
3099;SDS011;1560;52.746;13.474;2022-08-11T15:23:41;2.63;;;2.43;;
3099;SDS011;1560;52.746;13.474;2022-08-11T15:29:03;10.97;;;2.90;;
3099;SDS011;1560;52.746;13.474;2022-08-11T15:32:04;3.00;;;2.57;;
3099;SDS011;1560;52.746;13.474;2022-08-11T15:34:53;3.20;;;2.40;;
3099;SDS011;1560;52.746;13.474;2022-08-11T15:40:20;2.60;;;2.30;;
3099;SDS011;1560;52.746;13.474;2022-08-11T15:43:09;2.80;;;2.50;;
3099;SDS011;1560;52.746;13.474;2022-08-11T15:46:02;3.33;;;2.23;;
3099;SDS011;1560;52.746;13.474;2022-08-11T15:48:40;2.90;;;2.40;;
3099;SDS011;1560;52.746;13.474;2022-08-11T15:51:13;3.87;;;2.30;;
3099;SDS011;1560;52.746;13.474;2022-08-11T15:56:18;4.60;;;2.70;;
3099;SDS011;1560;52.746;13.474;2022-08-11T15:58:50;3.77;;;2.27;;
3099;SDS011;1560;52.746;13.474;2022-08-11T16:01:38;2.40;;;2.20;;
3099;SDS011;1560;52.746;13.474;2022-08-11T16:07:04;3.83;;;2.17;;
3099;SDS011;1560;52.746;13.474;2022-08-11T16:12:13;3.40;;;2.87;;
3099;SDS011;1560;52.746;13.474;2022-08-11T16:14:45;7.50;;;2.57;;
3099;SDS011;1560;52.746;13.474;2022-08-11T16:20:10;2.50;;;2.30;;
3099;SDS011;1560;52.746;13.474;2022-08-11T16:25:17;2.93;;;2.57;;
3099;SDS011;1560;52.746;13.474;2022-08-11T16:27:48;5.53;;;2.67;;
3099;SDS011;1560;52.746;13.474;2022-08-11T16:30:20;3.57;;;2.10;;
3099;SDS011;1560;52.746;13.474;2022-08-11T16:32:49;4.50;;;2.50;;
3099;SDS011;1560;52.746;13.474;2022-08-11T16:35:20;3.30;;;2.30;;
3099;SDS011;1560;52.746;13.474;2022-08-11T16:37:58;3.37;;;2.37;;
3099;SDS011;1560;52.746;13.474;2022-08-11T16:40:48;4.40;;;2.57;;
3099;SDS011;1560;52.746;13.474;2022-08-11T16:43:20;3.10;;;2.80;;
3099;SDS011;1560;52.746;13.474;2022-08-11T16:46:06;3.03;;;2.73;;
3099;SDS011;1560;52.746;13.474;2022-08-11T16:48:54;2.60;;;2.40;;
3099;SDS011;1560;52.746;13.474;2022-08-11T16:51:33;4.10;;;2.73;;
3099;SDS011;1560;52.746;13.474;2022-08-11T16:54:03;8.20;;;3.13;;
3099;SDS011;1560;52.746;13.474;2022-08-11T16:59:12;3.77;;;2.37;;
3099;SDS011;1560;52.746;13.474;2022-08-11T17:01:43;2.37;;;2.00;;
3099;SDS011;1560;52.746;13.474;2022-08-11T17:04:16;3.80;;;2.40;;
3099;SDS011;1560;52.746;13.474;2022-08-11T17:07:10;5.33;;;2.40;;
3099;SDS011;1560;52.746;13.474;2022-08-11T17:10:02;3.87;;;2.40;;
3099;SDS011;1560;52.746;13.474;2022-08-11T17:12:52;3.00;;;2.03;;
3099;SDS011;1560;52.746;13.474;2022-08-11T17:15:39;2.80;;;2.60;;
3099;SDS011;1560;52.746;13.474;2022-08-11T17:28:47;2.60;;;2.40;;
3099;SDS011;1560;52.746;13.474;2022-08-11T17:31:19;8.53;;;2.47;;
3099;SDS011;1560;52.746;13.474;2022-08-11T17:34:07;2.43;;;2.07;;
3099;SDS011;1560;52.746;13.474;2022-08-11T17:36:53;4.03;;;1.97;;
3099;SDS011;1560;52.746;13.474;2022-08-11T17:39:23;3.70;;;2.07;;
3099;SDS011;1560;52.746;13.474;2022-08-11T17:41:54;9.03;;;2.63;;
3099;SDS011;1560;52.746;13.474;2022-08-11T17:47:19;3.63;;;2.67;;
3099;SDS011;1560;52.746;13.474;2022-08-11T17:50:07;3.10;;;2.27;;
3099;SDS011;1560;52.746;13.474;2022-08-11T17:52:38;2.80;;;2.37;;
3099;SDS011;1560;52.746;13.474;2022-08-11T17:58:01;3.83;;;2.17;;
3099;SDS011;1560;52.746;13.474;2022-08-11T18:00:48;5.80;;;2.40;;
3099;SDS011;1560;52.746;13.474;2022-08-11T18:05:54;3.10;;;2.30;;
3099;SDS011;1560;52.746;13.474;2022-08-11T18:08:23;2.53;;;2.33;;
3099;SDS011;1560;52.746;13.474;2022-08-11T18:11:11;2.70;;;2.00;;
3099;SDS011;1560;52.746;13.474;2022-08-11T18:16:35;3.60;;;2.60;;
3099;SDS011;1560;52.746;13.474;2022-08-11T18:22:00;5.40;;;2.47;;
3099;SDS011;1560;52.746;13.474;2022-08-11T18:24:50;4.00;;;2.37;;
3099;SDS011;1560;52.746;13.474;2022-08-11T18:30:16;3.80;;;2.60;;
3099;SDS011;1560;52.746;13.474;2022-08-11T18:33:04;2.70;;;2.40;;
3099;SDS011;1560;52.746;13.474;2022-08-11T18:35:54;2.60;;;2.30;;
3099;SDS011;1560;52.746;13.474;2022-08-11T18:38:41;3.30;;;2.60;;
3099;SDS011;1560;52.746;13.474;2022-08-11T18:44:14;3.77;;;2.37;;
3099;SDS011;1560;52.746;13.474;2022-08-11T18:47:04;10.97;;;3.57;;
3099;SDS011;1560;52.746;13.474;2022-08-11T18:49:44;3.80;;;2.67;;
3099;SDS011;1560;52.746;13.474;2022-08-11T18:52:33;4.70;;;2.70;;
3099;SDS011;1560;52.746;13.474;2022-08-11T18:55:21;4.10;;;3.00;;
3099;SDS011;1560;52.746;13.474;2022-08-11T18:58:09;9.60;;;3.07;;
3099;SDS011;1560;52.746;13.474;2022-08-11T19:00:56;11.10;;;3.37;;
3099;SDS011;1560;52.746;13.474;2022-08-11T19:06:21;9.13;;;3.80;;
3099;SDS011;1560;52.746;13.474;2022-08-11T19:09:12;7.57;;;3.10;;
3099;SDS011;1560;52.746;13.474;2022-08-11T19:14:34;4.77;;;2.40;;
3099;SDS011;1560;52.746;13.474;2022-08-11T19:19:58;5.70;;;2.10;;
3099;SDS011;1560;52.746;13.474;2022-08-11T19:22:46;3.97;;;2.60;;
3099;SDS011;1560;52.746;13.474;2022-08-11T19:25:34;5.00;;;2.57;;
3099;SDS011;1560;52.746;13.474;2022-08-11T19:28:21;3.03;;;2.43;;
3099;SDS011;1560;52.746;13.474;2022-08-11T19:31:09;3.20;;;2.43;;
3099;SDS011;1560;52.746;13.474;2022-08-11T19:33:56;4.97;;;2.80;;
3099;SDS011;1560;52.746;13.474;2022-08-11T19:36:44;7.87;;;3.17;;
3099;SDS011;1560;52.746;13.474;2022-08-11T19:39:32;4.80;;;3.00;;
3099;SDS011;1560;52.746;13.474;2022-08-11T19:42:10;4.10;;;2.23;;
3099;SDS011;1560;52.746;13.474;2022-08-11T19:44:58;6.27;;;2.63;;
3099;SDS011;1560;52.746;13.474;2022-08-11T19:47:45;3.10;;;2.37;;
3099;SDS011;1560;52.746;13.474;2022-08-11T19:50:32;7.03;;;2.37;;